Search for airport 
image banner adimage banner adimage banner ad
image banner ad

KIKV - Ankeny Rgnl

Located in Ankeny, United States

ICAO - IKV, IATA -

Data provided by Airmate  

General information

Coordinates: N41°41'29" W93°33'59"
Elevation is 910 feet MSL.
Magnetic variation is 03° East
View others Airports in Iowa

Operational data

Special qualification required
Current time UTC:
Current local time:
Weather
METAR: KIKV 181755Z AUTO 00000G11KT 10SM CLR 26/16 A2986 RMK AO2
View NOTAMs / SUP AIP / TFR affecting this airport [VIEW]
Communications frequencies: [VIEW]

Runways:

RWY identifierQFULength (ft)Width (ft)SurfaceLDA (ft)
0445°420075CONC4200
22225°420075CONC4200
18180°5500100CONC
36360°5500100CONC

Airport contact information

Address: Ankeny United States

Other aviation service providers

Flight schools

Exec 1 Aviation, Inc.

Exec 1 Aviation, Inc.
info@exec1aviation.com+1(515)965-1020

Aero America

Aero America

Clear Skies Flying Club, Llc

Clear Skies Flying Club, Llc

Satellite view of KIKV